OAE2655 GQNO-GUCY
Flight info
| Callsign | OAE2655 |
|---|---|
| Flight time | N/A |
| Altitude | 39000 |
| Route | KETAS UR865 KITNI DCT IRALO RALUN1B |
| Aircraft | B772/H-SDE3FGHIJ1J4J7M3P2RWXYZ/LB1D1G1 |
Departure
| Time | 2026-04-30 14:18 |
|---|---|
| Airport | Nouakchott–Oumtounsy International Airport (GQNO) |
Arrival
| Time | N/A |
|---|---|
| Airport | Ahmed Sékou Touré International Airport (GUCY) |
| Time | Latitude | Longitude | Altitude | Speed | Heading |
|---|---|---|---|---|---|
| 2026-04-30 13:48 | 18.31102 | -15.96675 | 20 ft | 0 kts | 62° |
| 2026-04-30 14:05 | 18.31101 | -15.96668 | 19 ft | 3 kts | 97° |
| 2026-04-30 14:05 | 18.31083 | -15.96664 | 21 ft | 4 kts | 198° |
| 2026-04-30 14:06 | 18.31041 | -15.96663 | 19 ft | 8 kts | 153° |
| 2026-04-30 14:06 | 18.30924 | -15.96692 | 19 ft | 13 kts | 188° |
| 2026-04-30 14:07 | 18.30708 | -15.96573 | 20 ft | 19 kts | 150° |
| 2026-04-30 14:07 | 18.30592 | -15.96504 | 21 ft | 19 kts | 149° |
| 2026-04-30 14:07 | 18.30471 | -15.96434 | 22 ft | 24 kts | 153° |
| 2026-04-30 14:08 | 18.30118 | -15.96219 | 21 ft | 30 kts | 150° |
| 2026-04-30 14:08 | 18.29936 | -15.96111 | 22 ft | 30 kts | 150° |
| 2026-04-30 14:08 | 18.29624 | -15.95924 | 19 ft | 12 kts | 150° |
| 2026-04-30 14:09 | 18.29547 | -15.95901 | 21 ft | 12 kts | 186° |
| 2026-04-30 14:09 | 18.29508 | -15.95934 | 19 ft | 2 kts | 239° |
| 2026-04-30 14:09 | 18.29506 | -15.95937 | 19 ft | 0 kts | 239° |
| 2026-04-30 14:17 | 18.29487 | -15.95969 | 48 ft | 11 kts | 235° |
| 2026-04-30 14:17 | 18.29423 | -15.95978 | 22 ft | 10 kts | 128° |
| 2026-04-30 14:17 | 18.29392 | -15.95967 | 19 ft | 0 kts | 202° |
| 2026-04-30 14:17 | 18.29390 | -15.95990 | 20 ft | 6 kts | 296° |
| 2026-04-30 14:18 | 18.29450 | -15.96019 | 20 ft | 27 kts | 338° |
| 2026-04-30 14:18 | 18.29951 | -15.96302 | 37 ft | 130 kts | 330° |
| 2026-04-30 14:18 | 18.31163 | -15.97722 | 1891 ft | 160 kts | 274° |
| 2026-04-30 14:19 | 18.29383 | -15.99425 | 2838 ft | 211 kts | 184° |
| 2026-04-30 14:19 | 18.27868 | -15.99244 | 3319 ft | 232 kts | 173° |
| 2026-04-30 14:19 | 18.26168 | -15.98861 | 3571 ft | 267 kts | 169° |
| 2026-04-30 14:20 | 18.24313 | -15.98406 | 4308 ft | 278 kts | 170° |
| 2026-04-30 14:20 | 18.22415 | -15.97935 | 5331 ft | 279 kts | 171° |
| 2026-04-30 14:20 | 18.18731 | -15.97039 | 8077 ft | 273 kts | 170° |
| 2026-04-30 14:21 | 18.16871 | -15.96597 | 9364 ft | 275 kts | 170° |
| 2026-04-30 14:21 | 18.15016 | -15.96161 | 10525 ft | 281 kts | 170° |
| 2026-04-30 14:21 | 18.11125 | -15.95254 | 12605 ft | 293 kts | 170° |
| 2026-04-30 14:22 | 18.09120 | -15.94787 | 13638 ft | 298 kts | 169° |
| 2026-04-30 14:22 | 18.04999 | -15.94040 | 15265 ft | 306 kts | 188° |
| 2026-04-30 14:22 | 18.02959 | -15.94750 | 16016 ft | 315 kts | 213° |
| 2026-04-30 14:23 | 18.00495 | -15.98389 | 17859 ft | 324 kts | 258° |
| 2026-04-30 14:23 | 18.01237 | -16.03020 | 19465 ft | 334 kts | 301° |
| 2026-04-30 14:24 | 18.04985 | -16.05718 | 21228 ft | 344 kts | 351° |
| 2026-04-30 14:24 | 18.07387 | -16.05498 | 21985 ft | 355 kts | 17° |
| 2026-04-30 14:25 | 18.10966 | -16.01930 | 23480 ft | 376 kts | 69° |
| 2026-04-30 14:25 | 18.11026 | -15.96492 | 24689 ft | 388 kts | 110° |
| 2026-04-30 14:26 | 18.07761 | -15.92031 | 25822 ft | 395 kts | 150° |
| 2026-04-30 14:26 | 18.05267 | -15.90866 | 26413 ft | 393 kts | 170° |
| 2026-04-30 14:26 | 17.99949 | -15.91211 | 27669 ft | 384 kts | 202° |
| 2026-04-30 14:27 | 17.97556 | -15.92399 | 28252 ft | 379 kts | 221° |
| 2026-04-30 14:27 | 17.95712 | -15.94327 | 28876 ft | 373 kts | 240° |
| 2026-04-30 14:27 | 17.94634 | -15.96725 | 29538 ft | 368 kts | 257° |
| 2026-04-30 14:28 | 17.93374 | -16.01889 | 30841 ft | 364 kts | 247° |
| 2026-04-30 14:28 | 17.91906 | -16.04140 | 30980 ft | 388 kts | 229° |
| 2026-04-30 14:28 | 17.89670 | -16.05868 | 31090 ft | 414 kts | 211° |
| 2026-04-30 14:28 | 17.86834 | -16.06797 | 31180 ft | 442 kts | 193° |
| 2026-04-30 14:29 | 17.80432 | -16.06271 | 31359 ft | 486 kts | 168° |
| 2026-04-30 14:29 | 17.75119 | -16.03952 | 31737 ft | 507 kts | 156° |
| 2026-04-30 14:30 | 17.64892 | -15.97795 | 33243 ft | 513 kts | 154° |
| 2026-04-30 14:31 | 17.58627 | -15.94106 | 33888 ft | 518 kts | 155° |
| 2026-04-30 14:31 | 17.52363 | -15.90533 | 34806 ft | 513 kts | 155° |
| 2026-04-30 14:31 | 17.49235 | -15.88760 | 35299 ft | 510 kts | 156° |
| 2026-04-30 14:32 | 17.43019 | -15.85238 | 36115 ft | 507 kts | 156° |
| 2026-04-30 14:32 | 17.39923 | -15.83481 | 36495 ft | 505 kts | 156° |
| 2026-04-30 14:32 | 17.36837 | -15.81728 | 36893 ft | 504 kts | 156° |
| 2026-04-30 14:33 | 17.33760 | -15.79981 | 37301 ft | 502 kts | 156° |
| 2026-04-30 14:33 | 17.27685 | -15.76531 | 38063 ft | 499 kts | 156° |
| 2026-04-30 14:33 | 17.24637 | -15.74802 | 38416 ft | 498 kts | 156° |
| 2026-04-30 14:34 | 17.21600 | -15.73079 | 38753 ft | 496 kts | 156° |
| 2026-04-30 14:34 | 17.18571 | -15.71361 | 39056 ft | 494 kts | 156° |
| 2026-04-30 14:34 | 17.15553 | -15.69651 | 39353 ft | 493 kts | 156° |
| 2026-04-30 14:34 | 17.12526 | -15.67983 | 39627 ft | 490 kts | 159° |
| 2026-04-30 14:35 | 17.07336 | -15.65854 | 40254 ft | 476 kts | 169° |
| 2026-04-30 14:35 | 17.03113 | -15.64675 | 40574 ft | 474 kts | 171° |
| 2026-04-30 14:35 | 16.99923 | -15.63811 | 40752 ft | 474 kts | 171° |
| 2026-04-30 14:36 | 16.96726 | -15.62943 | 40864 ft | 476 kts | 171° |
| 2026-04-30 14:36 | 16.90325 | -15.61173 | 40941 ft | 475 kts | 170° |
| 2026-04-30 14:37 | 16.83948 | -15.59382 | 40941 ft | 474 kts | 170° |
| 2026-04-30 14:37 | 16.77598 | -15.57594 | 40932 ft | 472 kts | 170° |
| 2026-04-30 14:38 | 16.71304 | -15.55824 | 40937 ft | 471 kts | 170° |
| 2026-04-30 14:38 | 16.64982 | -15.54050 | 40940 ft | 470 kts | 170° |
| 2026-04-30 14:39 | 16.58663 | -15.52277 | 40942 ft | 470 kts | 170° |
| 2026-04-30 14:39 | 16.52343 | -15.50505 | 40940 ft | 470 kts | 170° |
| 2026-04-30 14:40 | 16.42900 | -15.47860 | 40934 ft | 471 kts | 170° |
| 2026-04-30 14:40 | 16.36570 | -15.46096 | 40935 ft | 471 kts | 170° |
| 2026-04-30 14:41 | 16.30232 | -15.44328 | 40935 ft | 472 kts | 170° |
| 2026-04-30 14:41 | 16.23889 | -15.42558 | 40933 ft | 472 kts | 170° |
| 2026-04-30 14:42 | 16.17577 | -15.40797 | 40930 ft | 473 kts | 170° |
| 2026-04-30 14:42 | 16.11222 | -15.39025 | 40927 ft | 473 kts | 170° |
| 2026-04-30 14:43 | 16.04868 | -15.37255 | 40930 ft | 473 kts | 170° |
| 2026-04-30 14:43 | 15.98511 | -15.35490 | 40930 ft | 473 kts | 170° |
| 2026-04-30 14:44 | 15.92153 | -15.33725 | 40930 ft | 473 kts | 170° |
| 2026-04-30 14:44 | 15.85839 | -15.31971 | 40927 ft | 473 kts | 170° |
| 2026-04-30 14:45 | 15.79485 | -15.30207 | 40912 ft | 473 kts | 169° |
| 2026-04-30 14:45 | 15.73140 | -15.28445 | 40926 ft | 472 kts | 169° |
| 2026-04-30 14:46 | 15.66805 | -15.26688 | 40922 ft | 471 kts | 169° |
| 2026-04-30 14:46 | 15.61548 | -15.25231 | 40920 ft | 470 kts | 169° |
| 2026-04-30 14:47 | 15.54204 | -15.23197 | 40923 ft | 470 kts | 169° |
| 2026-04-30 14:47 | 15.47890 | -15.21450 | 40918 ft | 469 kts | 169° |
| 2026-04-30 14:48 | 15.41590 | -15.19707 | 40913 ft | 468 kts | 169° |
| 2026-04-30 14:48 | 15.35301 | -15.17968 | 40918 ft | 467 kts | 169° |
| 2026-04-30 14:49 | 15.29060 | -15.16243 | 40919 ft | 467 kts | 169° |
| 2026-04-30 14:49 | 15.22786 | -15.14511 | 40919 ft | 466 kts | 169° |
| 2026-04-30 14:50 | 15.13384 | -15.11917 | 40915 ft | 466 kts | 169° |
| 2026-04-30 14:51 | 15.04025 | -15.09336 | 40919 ft | 466 kts | 169° |
| 2026-04-30 14:52 | 14.94620 | -15.06745 | 40911 ft | 467 kts | 169° |
| 2026-04-30 14:52 | 14.85207 | -15.04152 | 40910 ft | 467 kts | 169° |
| 2026-04-30 14:53 | 14.75939 | -15.01128 | 40910 ft | 472 kts | 159° |
| 2026-04-30 14:54 | 14.64621 | -14.94041 | 40916 ft | 478 kts | 150° |
| 2026-04-30 14:55 | 14.56253 | -14.88434 | 40902 ft | 478 kts | 151° |
| 2026-04-30 14:56 | 14.45080 | -14.81036 | 40902 ft | 479 kts | 151° |
| 2026-04-30 14:57 | 14.36666 | -14.75478 | 40899 ft | 479 kts | 151° |
| 2026-04-30 14:58 | 14.25494 | -14.68102 | 40898 ft | 478 kts | 151° |
| 2026-04-30 14:58 | 14.17095 | -14.62562 | 40895 ft | 478 kts | 151° |
| 2026-04-30 15:00 | 14.03150 | -14.53376 | 40891 ft | 476 kts | 151° |
| 2026-04-30 15:01 | 13.91992 | -14.46035 | 40893 ft | 475 kts | 151° |
| 2026-04-30 15:01 | 13.84582 | -14.41165 | 40890 ft | 474 kts | 151° |
| 2026-04-30 15:02 | 13.78121 | -14.36922 | 40883 ft | 474 kts | 151° |
| 2026-04-30 15:03 | 13.65184 | -14.28433 | 40884 ft | 473 kts | 151° |
| 2026-04-30 15:04 | 13.50431 | -14.18768 | 40878 ft | 472 kts | 151° |
| 2026-04-30 15:06 | 13.37521 | -14.10320 | 40881 ft | 472 kts | 151° |
| 2026-04-30 15:07 | 13.26454 | -14.03088 | 40872 ft | 471 kts | 151° |
| 2026-04-30 15:08 | 13.15424 | -13.95888 | 40874 ft | 471 kts | 151° |
| 2026-04-30 15:09 | 13.01599 | -13.86873 | 40873 ft | 471 kts | 151° |
| 2026-04-30 15:10 | 12.90575 | -13.79693 | 40872 ft | 471 kts | 150° |
| 2026-04-30 15:11 | 12.73994 | -13.68905 | 40865 ft | 470 kts | 150° |
| 2026-04-30 15:13 | 12.60216 | -13.59969 | 40860 ft | 470 kts | 150° |
| 2026-04-30 15:14 | 12.48624 | -13.54298 | 40865 ft | 461 kts | 173° |
| 2026-04-30 15:14 | 12.39054 | -13.53709 | 40866 ft | 464 kts | 182° |
| 2026-04-30 15:17 | 12.09535 | -13.53844 | 40875 ft | 478 kts | 182° |
| 2026-04-30 15:18 | 11.93021 | -13.53834 | 38183 ft | 479 kts | 181° |
| 2026-04-30 15:19 | 11.82744 | -13.53834 | 34103 ft | 513 kts | 181° |